Time;durP1;ratioP1;P1;durP2;ratioP2;P2;SDS_P1;SDS_P2;PMS_P1;PMS_P2;Temp;Humidity;BMP_temperature;BMP_pressure;BME280_temperature;BME280_humidity;BME280_pressure;Samples;Min_cycle;Max_cycle;Signal;HPM_P1;HPM_P2
2021/12/25 00:00:21;;;;;;;25.20;13.70;;;8.80;99.90;;;;;;5016410;28;20045;-74
2021/12/25 00:02:49;;;;;;;25.77;13.75;;;8.80;99.90;;;;;;5026971;28;20210;-73
2021/12/25 00:05:17;;;;;;;24.73;13.68;;;8.80;99.90;;;;;;5025371;28;20049;-74
2021/12/25 00:07:44;;;;;;;24.73;14.43;;;8.80;99.90;;;;;;5026416;28;20053;-72
2021/12/25 00:10:12;;;;;;;24.92;15.68;;;8.80;99.90;;;;;;5024786;28;20041;-73
2021/12/25 00:12:40;;;;;;;25.45;16.00;;;8.80;99.90;;;;;;5025036;28;20041;-74
2021/12/25 00:15:08;;;;;;;24.88;15.43;;;8.80;99.90;;;;;;5026473;28;20049;-73
2021/12/25 00:17:36;;;;;;;28.70;17.05;;;8.80;99.90;;;;;;5026705;28;20397;-73
2021/12/25 00:20:04;;;;;;;28.13;15.80;;;8.80;99.90;;;;;;5005961;28;20060;-73
2021/12/25 00:22:32;;;;;;;;;;;8.80;99.90;;;;;;5007037;28;20042;-73
2021/12/25 00:24:59;;;;;;;28.40;16.85;;;8.80;99.90;;;;;;5006471;28;19922;-74
2021/12/25 00:35:00;;;;;;;32.95;18.63;;;8.70;99.90;;;;;;5006119;28;20042;-72
2021/12/25 00:37:28;;;;;;;29.98;18.00;;;8.70;99.90;;;;;;5005690;28;20064;-74
2021/12/25 00:39:56;;;;;;;;;;;8.70;99.90;;;;;;5006644;28;20514;-73
2021/12/25 00:42:24;;;;;;;36.67;20.17;;;8.70;99.90;;;;;;5006243;28;20095;-73
2021/12/25 00:44:51;;;;;;;35.80;20.52;;;8.70;99.90;;;;;;5033566;28;20053;-72
2021/12/25 00:47:19;;;;;;;42.80;21.92;;;8.70;99.90;;;;;;5025513;28;20402;-73
2021/12/25 00:49:47;;;;;;;44.28;22.60;;;8.70;99.90;;;;;;5025783;28;20060;-74
2021/12/25 00:52:15;;;;;;;42.90;22.48;;;8.70;99.90;;;;;;5024065;28;20058;-73
2021/12/25 00:54:43;;;;;;;53.13;25.05;;;8.70;99.90;;;;;;5026115;28;20139;-72
2021/12/25 00:57:11;;;;;;;54.33;25.52;;;8.70;99.90;;;;;;5012008;28;20052;-73
2021/12/25 00:59:39;;;;;;;57.38;25.05;;;8.70;99.90;;;;;;5028476;28;20045;-74
2021/12/25 01:02:06;;;;;;;56.70;25.55;;;8.70;99.90;;;;;;5029598;28;20053;-73
2021/12/25 01:04:35;;;;;;;63.20;26.70;;;8.70;99.90;;;;;;5027172;28;20042;-74
2021/12/25 01:07:03;;;;;;;;;;;8.60;99.90;;;;;;5011338;28;20064;-72
2021/12/25 01:09:30;;;;;;;67.43;26.85;;;8.60;99.90;;;;;;5028307;28;19924;-73
2021/12/25 01:12:01;;;;;;;61.78;26.40;;;8.60;99.90;;;;;;5027813;28;20048;-73
2021/12/25 01:14:36;;;;;;;;;;;8.60;99.90;;;;;;5027450;28;20398;-73
2021/12/25 01:20:13;;;;;;;77.80;27.75;;;8.50;99.90;;;;;;5024296;28;20065;-72
2021/12/25 01:50:23;;;;;;;156.10;28.88;;;8.40;99.90;;;;;;5027373;28;20045;-72
2021/12/25 01:52:51;;;;;;;232.88;31.42;;;8.50;99.90;;;;;;5028883;28;20045;-72
2021/12/25 01:55:25;;;;;;;276.42;32.33;;;8.40;99.90;;;;;;5011612;28;20056;-72
2021/12/25 01:57:55;;;;;;;234.88;32.47;;;8.40;99.90;;;;;;5027200;28;20067;-72
2021/12/25 02:00:28;;;;;;;222.57;29.83;;;8.40;99.90;;;;;;5027235;28;20064;-72
2021/12/25 02:02:56;;;;;;;218.38;29.30;;;8.40;99.90;;;;;;5022428;28;20041;-73
2021/12/25 02:05:24;;;;;;;230.63;30.98;;;8.40;99.90;;;;;;5023221;28;20061;-73
2021/12/25 02:08:12;;;;;;;;;;;8.40;99.90;;;;;;5026673;28;20379;-72
2021/12/25 02:10:40;;;;;;;154.40;28.85;;;8.40;99.90;;;;;;5010955;28;19921;-72
2021/12/25 02:13:11;;;;;;;252.25;30.65;;;8.40;99.90;;;;;;5026991;28;20556;-71
2021/12/25 02:15:44;;;;;;;213.38;29.88;;;8.40;99.90;;;;;;5027320;28;20053;-71
2021/12/25 02:18:21;;;;;;;441.50;36.75;;;8.40;99.90;;;;;;5023628;28;20505;-72
2021/12/25 02:21:12;;;;;;;288.80;31.30;;;8.40;99.90;;;;;;5006574;28;20045;-72
2021/12/25 02:23:41;;;;;;;183.80;29.70;;;8.40;99.90;;;;;;5008714;28;20053;-72
2021/12/25 02:26:09;;;;;;;264.95;31.17;;;8.40;99.90;;;;;;5007127;28;20045;-72
2021/12/25 02:28:37;;;;;;;430.73;36.97;;;8.40;99.90;;;;;;5006707;28;20049;-71
2021/12/25 02:31:09;;;;;;;272.05;30.67;;;8.40;99.90;;;;;;5006808;28;20403;-71
2021/12/25 02:33:39;;;;;;;158.32;29.35;;;8.40;99.90;;;;;;5008311;28;20061;-72
2021/12/25 02:36:09;;;;;;;468.52;36.00;;;8.40;99.90;;;;;;5006933;28;20058;-71
2021/12/25 02:38:38;;;;;;;358.30;31.55;;;8.40;99.90;;;;;;5006364;28;20054;-71
2021/12/25 02:41:06;;;;;;;212.25;27.85;;;8.40;99.90;;;;;;5023240;28;20068;-71
2021/12/25 02:43:35;;;;;;;455.10;36.22;;;8.40;99.90;;;;;;5006857;28;20049;-73
2021/12/25 02:46:05;;;;;;;286.65;31.27;;;8.30;99.90;;;;;;5005655;28;20046;-72
2021/12/25 02:48:36;;;;;;;372.77;33.38;;;8.40;99.90;;;;;;5039355;28;20054;-71
2021/12/25 02:51:06;;;;;;;457.10;35.70;;;8.40;99.90;;;;;;5040257;28;20046;-72
2021/12/25 02:53:34;;;;;;;275.58;29.75;;;8.40;99.90;;;;;;5018858;28;20706;-72
2021/12/25 02:56:03;;;;;;;281.30;30.23;;;8.40;99.90;;;;;;5026914;28;20676;-73
2021/12/25 02:58:34;;;;;;;229.27;27.17;;;8.40;99.90;;;;;;5011064;28;20524;-72
2021/12/25 03:01:05;;;;;;;;;;;8.30;99.90;;;;;;5027458;28;20076;-73
2021/12/25 03:03:34;;;;;;;186.15;23.10;;;8.40;99.90;;;;;;5026711;28;19936;-72
2021/12/25 03:06:03;;;;;;;272.30;26.42;;;8.40;99.90;;;;;;5026774;28;20041;-72
2021/12/25 03:08:32;;;;;;;230.23;24.40;;;8.30;99.90;;;;;;5025542;28;20429;-72
2021/12/25 03:11:06;;;;;;;299.85;27.13;;;8.30;99.90;;;;;;5026039;28;20413;-73
2021/12/25 03:16:22;;;;;;;173.38;23.10;;;8.30;99.90;;;;;;5026721;28;20137;-74
2021/12/25 03:18:54;;;;;;;256.38;26.58;;;8.30;99.90;;;;;;5017337;28;20575;-72
2021/12/25 03:21:21;;;;;;;282.50;26.20;;;8.30;99.90;;;;;;5006479;28;20076;-73
2021/12/25 03:23:52;;;;;;;334.48;27.85;;;8.30;99.90;;;;;;5007185;28;20129;-72
2021/12/25 03:26:20;;;;;;;235.10;25.73;;;8.20;99.90;;;;;;4991010;28;20056;-72
2021/12/25 03:28:51;;;;;;;258.15;25.85;;;8.30;99.90;;;;;;5007786;28;20054;-73
2021/12/25 03:31:21;;;;;;;204.68;23.10;;;8.30;99.90;;;;;;4990132;28;20410;-73
2021/12/25 03:33:53;;;;;;;309.00;25.90;;;8.30;99.90;;;;;;4989855;28;20502;-73
2021/12/25 03:36:22;;;;;;;261.48;25.50;;;8.30;99.90;;;;;;4989395;28;20407;-72
2021/12/25 03:38:51;;;;;;;366.25;27.25;;;8.30;99.90;;;;;;5007344;28;20056;-73
2021/12/25 03:41:19;;;;;;;257.00;24.88;;;8.30;99.90;;;;;;5006171;28;20042;-72
2021/12/25 03:43:48;;;;;;;317.10;26.77;;;8.30;99.90;;;;;;5006312;28;20541;-71
2021/12/25 03:46:16;;;;;;;;;;;8.30;99.90;;;;;;5023288;28;20048;-72
2021/12/25 03:59:32;;;;;;;468.85;36.75;;;8.30;99.90;;;;;;5025726;28;20052;-71
2021/12/25 04:02:05;;;;;;;502.58;38.22;;;8.30;99.90;;;;;;5025828;28;20046;-72
2021/12/25 04:04:38;;;;;;;522.20;40.58;;;8.30;99.90;;;;;;5021751;28;20042;-72
2021/12/25 04:09:35;;;;;;;571.95;40.88;;;8.30;99.90;;;;;;5006025;28;20049;-72
2021/12/25 04:12:07;;;;;;;313.83;35.83;;;8.30;99.90;;;;;;5005849;28;20060;-72
2021/12/25 04:14:36;;;;;;;486.13;40.65;;;8.30;99.90;;;;;;5005737;28;20046;-72
2021/12/25 04:17:05;;;;;;;525.83;40.08;;;8.30;99.90;;;;;;5018575;28;20049;-72
2021/12/25 04:19:35;;;;;;;349.85;36.15;;;8.30;99.90;;;;;;5024623;28;20049;-72
2021/12/25 04:22:09;;;;;;;496.70;39.83;;;8.30;99.90;;;;;;5025293;28;20045;-72
2021/12/25 04:24:41;;;;;;;591.40;44.63;;;8.30;99.90;;;;;;5008832;28;20079;-73
2021/12/25 04:27:13;;;;;;;490.63;44.25;;;8.40;99.90;;;;;;5007841;28;20049;-72
2021/12/25 04:29:47;;;;;;;561.08;46.38;;;8.40;99.90;;;;;;5006666;28;20071;-72
2021/12/25 05:06:18;;;;;;;228.13;36.20;;;8.30;99.90;;;;;;4989117;28;20072;-73
2021/12/25 05:08:46;;;;;;;277.10;37.03;;;8.30;99.90;;;;;;5004846;28;20536;-72
2021/12/25 05:11:13;;;;;;;172.68;35.25;;;8.30;99.90;;;;;;5005294;28;20061;-72
2021/12/25 05:13:42;;;;;;;160.63;35.33;;;8.30;99.90;;;;;;5005223;28;20054;-72
2021/12/25 05:16:12;;;;;;;289.98;38.85;;;8.30;99.90;;;;;;5004843;28;20049;-73
2021/12/25 05:18:39;;;;;;;273.35;37.70;;;8.30;99.90;;;;;;5008424;28;20046;-73
2021/12/25 05:21:07;;;;;;;190.07;35.38;;;8.30;99.90;;;;;;5013412;28;20056;-73
2021/12/25 05:23:36;;;;;;;200.60;34.53;;;8.30;99.90;;;;;;5024712;28;20124;-72
2021/12/25 05:26:04;;;;;;;252.73;37.58;;;8.30;99.90;;;;;;5024706;28;20509;-73
2021/12/25 05:28:40;;;;;;;257.13;35.15;;;8.30;99.90;;;;;;5024227;28;20042;-73
2021/12/25 05:31:11;;;;;;;235.43;35.50;;;8.30;99.90;;;;;;5025021;28;20405;-73
2021/12/25 05:33:58;;;;;;;222.57;35.83;;;8.30;99.90;;;;;;5026894;28;20676;-72
2021/12/25 05:36:43;;;;;;;241.07;35.28;;;8.30;99.90;;;;;;5025827;28;20053;-72
2021/12/25 05:39:29;;;;;;;211.20;32.70;;;8.20;99.90;;;;;;5025991;28;20045;-71
2021/12/25 05:41:59;;;;;;;289.17;34.67;;;8.20;99.90;;;;;;5027793;28;20049;-73
2021/12/25 05:44:28;;;;;;;254.98;31.85;;;8.20;99.90;;;;;;5011948;28;20061;-73
2021/12/25 05:47:06;;;;;;;243.50;31.35;;;8.30;99.90;;;;;;5026217;28;20049;-73
2021/12/25 05:49:37;;;;;;;318.60;33.00;;;8.20;99.90;;;;;;5023668;28;20065;-73
2021/12/25 05:52:14;;;;;;;241.43;31.95;;;8.20;99.90;;;;;;5007935;28;20509;-73
2021/12/25 05:55:11;;;;;;;315.52;33.78;;;8.20;99.90;;;;;;5008249;28;20045;-73
2021/12/25 05:58:00;;;;;;;233.95;31.73;;;8.20;99.90;;;;;;5008283;28;20046;-73
2021/12/25 06:00:35;;;;;;;311.45;33.33;;;8.20;99.90;;;;;;5023500;28;20489;-72
2021/12/25 06:03:03;;;;;;;302.80;34.47;;;8.20;99.90;;;;;;5027506;28;20045;-72
2021/12/25 06:05:35;;;;;;;564.60;41.38;;;8.20;99.90;;;;;;5027612;28;20060;-72
2021/12/25 06:08:04;;;;;;;408.17;36.20;;;8.20;99.90;;;;;;5026645;28;20060;-73
2021/12/25 06:10:32;;;;;;;403.60;35.55;;;8.20;99.90;;;;;;5027253;28;20045;-72
2021/12/25 06:13:02;;;;;;;341.92;34.13;;;8.30;99.90;;;;;;5028894;28;20076;-72
2021/12/25 06:15:36;;;;;;;375.33;33.50;;;8.30;99.90;;;;;;5027266;28;20053;-72
2021/12/25 06:18:16;;;;;;;333.33;30.45;;;8.30;99.90;;;;;;5006715;28;20064;-72
2021/12/25 06:20:54;;;;;;;384.73;34.83;;;8.30;99.90;;;;;;5007853;28;20061;-72
2021/12/25 06:23:55;;;;;;;423.70;33.95;;;8.20;99.90;;;;;;4992697;28;20498;-72
2021/12/25 06:27:00;;;;;;;398.40;34.30;;;8.30;99.90;;;;;;5005617;28;20498;-72
2021/12/25 06:29:49;;;;;;;362.23;34.15;;;8.20;99.90;;;;;;5008536;28;20058;-72
2021/12/25 06:32:37;;;;;;;291.10;30.90;;;8.30;99.90;;;;;;4994539;28;20494;-72
2021/12/25 06:35:12;;;;;;;361.13;34.05;;;8.20;99.90;;;;;;5008563;28;20041;-71
2021/12/25 06:38:09;;;;;;;370.70;34.25;;;8.30;99.90;;;;;;4994119;28;20069;-72
2021/12/25 06:40:45;;;;;;;394.95;34.22;;;8.30;99.90;;;;;;5007038;28;20038;-72
2021/12/25 06:43:13;;;;;;;356.83;33.95;;;8.30;99.90;;;;;;5007410;28;20041;-73
2021/12/25 06:45:41;;;;;;;301.08;33.97;;;8.30;99.90;;;;;;5026384;28;20045;-72
2021/12/25 06:48:10;;;;;;;356.80;34.80;;;8.20;99.90;;;;;;5026329;28;20046;-72
2021/12/25 06:50:56;;;;;;;359.38;35.60;;;8.20;99.90;;;;;;5027844;28;20693;-73
2021/12/25 06:53:44;;;;;;;461.58;37.97;;;8.30;99.90;;;;;;5026511;28;20049;-72
2021/12/25 06:56:32;;;;;;;383.38;37.95;;;8.30;99.90;;;;;;5027489;28;20065;-72
2021/12/25 06:59:04;;;;;;;385.63;37.47;;;8.30;99.90;;;;;;5010880;28;20053;-72
2021/12/25 07:01:38;;;;;;;315.58;37.85;;;8.20;99.90;;;;;;5024396;28;20049;-72
2021/12/25 07:04:12;;;;;;;289.55;36.97;;;8.30;99.90;;;;;;5036722;28;20045;-72
2021/12/25 07:07:06;;;;;;;334.20;38.67;;;8.30;99.90;;;;;;4999865;28;20061;-72
2021/12/25 07:09:57;;;;;;;292.48;38.20;;;8.30;99.90;;;;;;5025733;28;20050;-73
2021/12/25 07:12:46;;;;;;;254.63;36.72;;;8.30;99.90;;;;;;5039165;28;20466;-72
2021/12/25 07:15:34;;;;;;;205.00;36.08;;;8.30;99.90;;;;;;5015022;28;20058;-73
2021/12/25 07:18:21;;;;;;;161.82;34.88;;;8.30;99.90;;;;;;5026487;28;20049;-73
2021/12/25 07:21:14;;;;;;;140.07;31.58;;;8.30;99.90;;;;;;5021118;28;20520;-72
2021/12/25 07:24:09;;;;;;;128.98;33.40;;;8.30;99.90;;;;;;5005003;28;20067;-72
2021/12/25 07:26:46;;;;;;;92.68;29.40;;;8.30;99.90;;;;;;5005147;28;20045;-73
2021/12/25 07:29:23;;;;;;;89.13;28.45;;;8.30;99.90;;;;;;5024136;28;20053;-74
2021/12/25 07:31:51;;;;;;;69.78;22.90;;;8.30;99.90;;;;;;5026026;28;20041;-72
2021/12/25 07:34:19;;;;;;;71.28;23.55;;;8.20;99.90;;;;;;5022343;28;20045;-73
2021/12/25 07:36:47;;;;;;;76.85;22.10;;;8.20;99.90;;;;;;5026366;28;20065;-73
2021/12/25 07:39:14;;;;;;;57.22;17.67;;;8.20;99.90;;;;;;5025890;28;20049;-74
2021/12/25 07:41:42;;;;;;;50.63;17.02;;;8.20;99.90;;;;;;5025858;28;20049;-73
2021/12/25 07:44:20;;;;;;;;;;;8.20;99.90;;;;;;5021896;28;20720;-72
2021/12/25 07:46:51;;;;;;;31.48;11.93;;;8.10;99.90;;;;;;5007167;28;20565;-72
2021/12/25 07:49:20;;;;;;;26.58;11.43;;;8.10;99.90;;;;;;5018367;28;20061;-72
2021/12/25 07:51:48;;;;;;;29.38;10.63;;;8.10;99.90;;;;;;5026199;28;20414;-73
2021/12/25 07:54:16;;;;;;;25.75;9.88;;;8.00;99.90;;;;;;5021547;28;20049;-72
2021/12/25 07:56:45;;;;;;;36.47;10.43;;;8.00;99.90;;;;;;5016273;28;20038;-73
2021/12/25 07:59:13;;;;;;;29.55;10.77;;;8.00;99.90;;;;;;5022635;28;20058;-73
2021/12/25 08:01:41;;;;;;;25.65;11.15;;;8.00;99.90;;;;;;5021612;28;20038;-72
2021/12/25 08:04:10;;;;;;;22.00;10.50;;;7.90;99.90;;;;;;5023793;28;20057;-72
2021/12/25 08:06:39;;;;;;;27.83;10.80;;;7.90;99.90;;;;;;5025981;28;20049;-72
2021/12/25 08:09:07;;;;;;;26.48;11.75;;;7.90;99.90;;;;;;5011793;28;20046;-73
2021/12/25 08:11:36;;;;;;;29.08;11.70;;;7.90;99.90;;;;;;5014165;28;20424;-73
2021/12/25 08:14:04;;;;;;;22.92;11.40;;;7.80;99.90;;;;;;5021431;28;20109;-73
2021/12/25 08:16:32;;;;;;;27.02;11.27;;;7.80;99.90;;;;;;5021816;28;20064;-72
2021/12/25 08:19:00;;;;;;;23.95;12.25;;;7.80;99.90;;;;;;5004934;28;20045;-72
2021/12/25 08:21:46;;;;;;;22.60;10.25;;;7.80;99.90;;;;;;5004804;28;20402;-72
2021/12/25 08:24:32;;;;;;;24.42;10.60;;;7.80;99.90;;;;;;5003855;28;20565;-71
2021/12/25 08:27:18;;;;;;;25.45;10.30;;;7.80;99.90;;;;;;5010676;28;20052;-72
2021/12/25 08:30:22;;;;;;;15.02;9.05;;;7.80;99.90;;;;;;5007377;28;20069;-73
2021/12/25 08:33:08;;;;;;;16.65;8.07;;;7.80;99.90;;;;;;4989429;28;20588;-72
2021/12/25 08:35:56;;;;;;;19.55;8.40;;;7.80;99.90;;;;;;5004151;28;20045;-71
2021/12/25 08:38:24;;;;;;;20.67;8.55;;;7.80;99.90;;;;;;5001959;28;20378;-73
2021/12/25 08:40:54;;;;;;;22.58;8.07;;;7.80;99.90;;;;;;5004551;28;20064;-72
2021/12/25 08:43:25;;;;;;;15.10;8.23;;;7.80;99.90;;;;;;5004114;28;20054;-71
2021/12/25 08:46:11;;;;;;;17.40;7.65;;;7.80;99.90;;;;;;5011029;28;20045;-72
2021/12/25 08:48:39;;;;;;;15.18;7.43;;;7.80;99.90;;;;;;5019520;28;20041;-73
2021/12/25 08:51:07;;;;;;;15.48;6.75;;;7.70;99.90;;;;;;5038183;28;20703;-74
2021/12/25 08:53:35;;;;;;;11.57;6.97;;;7.70;99.90;;;;;;5015778;28;20045;-74
2021/12/25 08:56:03;;;;;;;18.73;6.72;;;7.70;99.90;;;;;;4986613;28;20061;-74
2021/12/25 08:58:31;;;;;;;9.93;5.88;;;7.70;99.90;;;;;;5002796;28;20378;-74
2021/12/25 09:01:02;;;;;;;10.40;5.38;;;7.70;99.90;;;;;;5006260;28;20049;-73
2021/12/25 09:03:30;;;;;;;15.32;6.47;;;7.70;99.90;;;;;;5005869;28;20100;-74
2021/12/25 09:06:01;;;;;;;8.70;5.28;;;7.70;99.90;;;;;;5004392;28;20411;-73
2021/12/25 09:08:30;;;;;;;9.45;5.63;;;7.70;99.90;;;;;;5020305;28;20052;-73
2021/12/25 09:11:00;;;;;;;13.43;5.43;;;7.70;99.90;;;;;;5005494;28;20053;-74
2021/12/25 09:13:27;;;;;;;12.43;5.88;;;7.80;99.90;;;;;;5005389;28;20050;-74
2021/12/25 09:15:55;;;;;;;13.93;6.25;;;7.80;99.90;;;;;;5008552;28;20060;-73
2021/12/25 09:18:23;;;;;;;14.98;5.10;;;7.70;99.90;;;;;;5010204;28;20042;-75
2021/12/25 09:20:51;;;;;;;11.10;6.30;;;7.70;99.90;;;;;;5041809;28;20050;-73
2021/12/25 09:23:18;;;;;;;11.68;5.60;;;7.70;99.90;;;;;;5028679;28;20049;-74
2021/12/25 09:25:46;;;;;;;9.27;4.97;;;7.70;99.90;;;;;;5029217;28;20046;-75
2021/12/25 09:28:15;;;;;;;9.57;5.18;;;7.70;99.90;;;;;;5028663;28;20049;-74
2021/12/25 09:30:42;;;;;;;;;;;7.70;99.90;;;;;;5027290;28;20057;-73
2021/12/25 09:33:11;;;;;;;11.35;4.75;;;7.70;99.90;;;;;;5060568;28;20031;-74
2021/12/25 09:35:38;;;;;;;;;;;7.70;99.90;;;;;;5028076;28;20056;-73
2021/12/25 09:38:06;;;;;;;7.20;4.53;;;7.60;99.90;;;;;;5023242;28;19928;-76
2021/12/25 09:40:34;;;;;;;10.38;5.70;;;7.70;99.90;;;;;;5021914;28;20077;-75
2021/12/25 09:43:02;;;;;;;14.32;5.95;;;7.60;99.90;;;;;;5015903;28;20056;-74
2021/12/25 09:45:30;;;;;;;12.70;5.75;;;7.60;99.90;;;;;;5024572;28;20509;-75
2021/12/25 09:47:58;;;;;;;10.82;5.25;;;7.60;99.90;;;;;;5028501;28;20484;-74
2021/12/25 09:50:26;;;;;;;11.65;5.55;;;7.60;99.90;;;;;;5022401;28;20042;-75
2021/12/25 09:52:54;;;;;;;;;;;7.60;99.90;;;;;;5019861;28;20041;-73
2021/12/25 09:55:21;;;;;;;10.40;5.55;;;7.60;99.90;;;;;;5028814;28;19944;-74
2021/12/25 09:57:49;;;;;;;12.52;5.60;;;7.60;99.90;;;;;;5027005;28;20076;-74
2021/12/25 10:00:20;;;;;;;7.72;5.32;;;7.60;99.90;;;;;;5028127;28;20765;-75
2021/12/25 10:02:53;;;;;;;10.70;6.00;;;7.60;99.90;;;;;;5019431;28;20049;-74
2021/12/25 10:05:36;;;;;;;12.90;6.10;;;7.60;99.90;;;;;;5020578;28;20041;-74
2021/12/25 10:08:13;;;;;;;11.85;6.80;;;7.60;99.90;;;;;;5015095;28;20049;-74
2021/12/25 10:10:42;;;;;;;14.43;7.38;;;7.50;99.90;;;;;;5028638;28;20405;-74
2021/12/25 10:13:27;;;;;;;17.20;7.80;;;7.50;99.90;;;;;;5015488;28;20046;-73
2021/12/25 10:16:00;;;;;;;14.40;7.75;;;7.50;99.90;;;;;;5020734;28;20054;-74
2021/12/25 10:18:34;;;;;;;11.02;6.85;;;7.50;99.90;;;;;;5012098;28;20037;-76
2021/12/25 10:21:23;;;;;;;13.70;7.53;;;7.50;99.90;;;;;;5026602;28;20048;-75
2021/12/25 10:24:12;;;;;;;19.63;8.10;;;7.50;99.90;;;;;;5037581;28;20049;-72
2021/12/25 10:26:44;;;;;;;15.05;8.43;;;7.40;99.90;;;;;;5027218;28;20042;-72
2021/12/25 10:29:26;;;;;;;18.63;8.45;;;7.40;99.90;;;;;;5026295;28;20438;-74
2021/12/25 10:31:58;;;;;;;20.40;8.55;;;7.40;99.90;;;;;;5027577;28;20598;-74
2021/12/25 10:34:29;;;;;;;17.23;8.18;;;7.40;99.90;;;;;;5028698;28;20045;-72
2021/12/25 10:37:08;;;;;;;19.60;9.43;;;7.40;99.90;;;;;;5041891;28;20418;-73
2021/12/25 10:39:36;;;;;;;18.67;9.57;;;7.40;99.90;;;;;;5024924;28;20045;-73
2021/12/25 10:42:11;;;;;;;22.02;9.18;;;7.30;99.90;;;;;;5026120;28;20441;-74
2021/12/25 10:44:50;;;;;;;20.10;8.75;;;7.30;99.90;;;;;;5003842;28;20046;-74
2021/12/25 10:47:23;;;;;;;17.33;8.77;;;7.30;99.90;;;;;;5036589;28;20054;-74
2021/12/25 10:49:54;;;;;;;23.25;9.75;;;7.30;99.90;;;;;;5036136;28;20053;-73
2021/12/25 10:52:27;;;;;;;18.73;9.63;;;7.30;99.90;;;;;;5006336;28;20054;-73
2021/12/25 10:55:20;;;;;;;21.83;9.77;;;7.30;99.90;;;;;;5006268;28;20046;-73
2021/12/25 10:57:52;;;;;;;26.27;8.98;;;7.30;99.90;;;;;;5006573;28;20586;-75
2021/12/25 11:00:20;;;;;;;25.02;10.30;;;7.20;99.90;;;;;;5007441;28;20410;-74
2021/12/25 11:02:51;;;;;;;21.33;10.20;;;7.20;99.90;;;;;;4989664;28;20057;-72
2021/12/25 11:05:23;;;;;;;24.48;10.77;;;7.30;99.90;;;;;;5021581;28;20073;-75
2021/12/25 11:08:04;;;;;;;26.58;11.25;;;7.20;99.90;;;;;;5021834;28;20065;-74
2021/12/25 11:10:44;;;;;;;24.63;11.68;;;7.20;99.90;;;;;;5008623;28;20057;-73
2021/12/25 11:13:19;;;;;;;27.17;11.35;;;7.20;99.90;;;;;;5022635;28;20445;-73
2021/12/25 11:15:49;;;;;;;26.83;11.75;;;7.20;99.90;;;;;;5018202;28;20058;-72
2021/12/25 11:18:17;;;;;;;26.95;11.48;;;7.20;99.90;;;;;;5011159;28;20493;-72
2021/12/25 11:20:46;;;;;;;26.15;11.10;;;7.20;99.90;;;;;;5025983;28;20056;-74
2021/12/25 11:23:15;;;;;;;28.00;11.43;;;7.20;99.90;;;;;;5026890;28;20057;-73
2021/12/25 11:25:44;;;;;;;29.25;11.80;;;7.20;99.90;;;;;;5025625;28;20457;-74
2021/12/25 11:28:18;;;;;;;32.05;12.80;;;7.20;99.90;;;;;;5024958;28;20502;-73
2021/12/25 11:30:50;;;;;;;29.98;11.95;;;7.30;99.90;;;;;;5024705;28;20053;-72
2021/12/25 11:33:18;;;;;;;25.23;11.85;;;7.30;99.90;;;;;;5025628;28;20060;-72
2021/12/25 11:35:46;;;;;;;29.55;11.88;;;7.30;99.90;;;;;;5026848;28;20068;-74
2021/12/25 11:38:13;;;;;;;28.67;12.30;;;7.20;99.90;;;;;;5025377;28;20072;-73
2021/12/25 11:40:48;;;;;;;26.33;12.63;;;7.20;99.90;;;;;;5027133;28;20080;-74
2021/12/25 11:43:36;;;;;;;37.65;13.40;;;7.20;99.90;;;;;;5025447;28;20386;-73
2021/12/25 11:46:06;;;;;;;35.20;12.85;;;7.20;99.90;;;;;;5024776;28;20251;-74
2021/12/25 11:48:36;;;;;;;30.40;12.15;;;7.20;99.90;;;;;;5025329;28;20069;-74
2021/12/25 11:51:06;;;;;;;32.92;12.98;;;7.20;99.90;;;;;;5026631;28;20057;-73
2021/12/25 11:54:07;;;;;;;25.55;12.65;;;7.20;99.90;;;;;;5026029;28;20068;-72
2021/12/25 11:56:50;;;;;;;30.77;13.02;;;7.20;99.90;;;;;;5008520;28;20041;-73
2021/12/25 11:59:18;;;;;;;29.45;11.85;;;7.20;99.90;;;;;;5024882;28;20053;-74
2021/12/25 12:01:51;;;;;;;30.35;12.68;;;7.20;99.90;;;;;;5026414;28;20338;-72
2021/12/25 12:04:25;;;;;;;32.47;13.23;;;7.20;99.90;;;;;;5024219;28;20041;-73
2021/12/25 12:06:59;;;;;;;28.98;13.05;;;7.20;99.90;;;;;;5024165;28;20045;-73
2021/12/25 12:09:45;;;;;;;35.17;13.10;;;7.20;99.90;;;;;;5011258;28;20034;-73
2021/12/25 12:12:36;;;;;;;28.33;12.40;;;7.20;99.90;;;;;;5005968;28;20054;-73
2021/12/25 12:15:27;;;;;;;32.92;12.75;;;7.20;99.90;;;;;;4988579;28;20061;-72
2021/12/25 12:18:28;;;;;;;40.28;12.73;;;7.20;99.90;;;;;;5007657;28;20607;-73
2021/12/25 12:21:10;;;;;;;24.17;12.30;;;7.20;99.90;;;;;;5025060;28;20819;-74
2021/12/25 12:26:48;;;;;;;31.85;12.57;;;7.20;99.90;;;;;;5024343;28;20602;-74
2021/12/25 12:29:38;;;;;;;25.50;11.68;;;7.30;99.90;;;;;;5025541;28;20053;-71
2021/12/25 12:32:27;;;;;;;28.08;12.05;;;7.30;99.90;;;;;;5025709;28;20049;-73
2021/12/25 12:34:55;;;;;;;29.27;11.30;;;7.30;99.90;;;;;;5011043;28;20041;-73
2021/12/25 12:37:24;;;;;;;23.67;11.32;;;7.40;99.90;;;;;;5025248;28;20498;-73
2021/12/25 12:40:02;;;;;;;23.42;9.90;;;7.30;99.90;;;;;;4990754;28;20052;-73
2021/12/25 12:42:43;;;;;;;;;;;7.40;99.90;;;;;;5026433;28;20053;-73
2021/12/25 12:45:24;;;;;;;24.58;11.00;;;7.30;99.90;;;;;;5025760;28;19920;-73
2021/12/25 12:48:15;;;;;;;27.95;10.30;;;7.30;99.90;;;;;;5025066;28;20068;-73
2021/12/25 12:50:55;;;;;;;19.92;10.18;;;7.30;99.90;;;;;;5024415;28;20057;-74
2021/12/25 12:53:25;;;;;;;18.27;9.88;;;7.30;99.90;;;;;;5023836;28;20052;-72
2021/12/25 12:56:02;;;;;;;23.17;10.23;;;7.30;99.90;;;;;;5025758;28;20058;-71
2021/12/25 12:58:30;;;;;;;20.55;9.88;;;7.40;99.90;;;;;;5021806;28;20049;-72
2021/12/25 13:01:07;;;;;;;24.90;10.10;;;7.40;99.90;;;;;;5005446;28;20062;-72
2021/12/25 13:03:36;;;;;;;17.02;9.32;;;7.50;99.90;;;;;;5037416;28;20478;-75
2021/12/25 13:06:12;;;;;;;;;;;7.50;99.90;;;;;;5024594;28;20045;-75
2021/12/25 13:08:42;;;;;;;27.25;10.43;;;7.50;99.90;;;;;;5024853;28;19921;-75
2021/12/25 13:11:27;;;;;;;22.75;10.27;;;7.50;99.90;;;;;;5006695;28;20053;-75
2021/12/25 13:14:00;;;;;;;21.23;10.75;;;7.50;99.90;;;;;;5024390;28;20042;-75
2021/12/25 13:16:39;;;;;;;19.95;10.85;;;7.50;99.90;;;;;;5023618;28;20049;-75
2021/12/25 13:19:08;;;;;;;21.75;10.75;;;7.40;99.90;;;;;;5024320;28;20052;-74
2021/12/25 13:21:37;;;;;;;17.85;9.95;;;7.40;99.90;;;;;;5024973;28;20053;-75
2021/12/25 13:24:11;;;;;;;21.20;10.02;;;7.40;99.90;;;;;;5025207;28;20389;-74
2021/12/25 13:26:47;;;;;;;20.88;10.10;;;7.30;99.90;;;;;;5023874;28;20050;-74
2021/12/25 13:29:19;;;;;;;20.70;9.63;;;7.30;99.90;;;;;;5021123;28;20033;-74
2021/12/25 13:31:48;;;;;;;20.20;9.75;;;7.30;99.90;;;;;;5023103;28;20049;-73
2021/12/25 13:34:20;;;;;;;21.58;9.98;;;7.30;99.90;;;;;;5022005;28;20041;-74
2021/12/25 13:36:52;;;;;;;17.63;10.00;;;7.30;99.90;;;;;;5018005;28;20062;-73
2021/12/25 13:39:26;;;;;;;19.73;10.10;;;7.30;99.90;;;;;;5003808;28;20061;-74
2021/12/25 13:41:57;;;;;;;21.15;10.32;;;7.30;99.90;;;;;;5002575;28;20053;-73
2021/12/25 13:44:32;;;;;;;23.15;10.90;;;7.20;99.90;;;;;;5016572;28;20050;-72
2021/12/25 13:47:06;;;;;;;20.92;10.05;;;7.20;99.90;;;;;;5022900;28;20065;-75
2021/12/25 13:49:46;;;;;;;17.27;10.07;;;7.20;99.90;;;;;;5019324;28;20413;-73
2021/12/25 13:52:22;;;;;;;21.58;11.50;;;7.20;99.90;;;;;;5023150;28;20061;-74
2021/12/25 13:55:12;;;;;;;19.88;11.05;;;7.20;99.90;;;;;;5022481;28;20045;-75
2021/12/25 13:57:51;;;;;;;23.25;10.80;;;7.20;99.90;;;;;;5020941;28;20053;-73
2021/12/25 14:00:19;;;;;;;27.30;11.35;;;7.10;99.90;;;;;;5036281;28;20041;-75
2021/12/25 14:02:51;;;;;;;32.03;11.73;;;7.10;99.90;;;;;;5024338;28;20046;-73
2021/12/25 14:05:21;;;;;;;23.52;11.93;;;7.10;99.90;;;;;;5024602;28;20045;-75
2021/12/25 14:07:49;;;;;;;24.33;11.52;;;7.00;99.90;;;;;;5025387;28;20209;-73
2021/12/25 14:10:19;;;;;;;;;;;7.00;99.90;;;;;;5024697;28;20552;-75
2021/12/25 14:12:54;;;;;;;33.40;12.60;;;7.00;99.90;;;;;;5026395;28;20133;-74
2021/12/25 14:15:25;;;;;;;25.70;12.50;;;7.00;99.90;;;;;;5026204;28;20564;-72
2021/12/25 14:17:54;;;;;;;30.65;13.63;;;7.00;99.90;;;;;;5028229;28;20057;-72
2021/12/25 14:20:25;;;;;;;30.38;13.65;;;7.00;99.90;;;;;;5015541;28;20057;-73
2021/12/25 14:23:02;;;;;;;26.23;13.55;;;7.00;99.90;;;;;;5020955;28;20060;-72
2021/12/25 14:25:33;;;;;;;37.03;14.57;;;6.90;99.90;;;;;;5018959;28;20077;-72
2021/12/25 14:28:32;;;;;;;31.13;15.98;;;6.90;99.90;;;;;;5016528;28;20501;-72
2021/12/25 14:31:07;;;;;;;34.97;15.68;;;7.00;99.90;;;;;;5021688;28;20386;-74
2021/12/25 14:33:57;;;;;;;37.15;15.27;;;6.90;99.90;;;;;;5023833;28;20073;-72
2021/12/25 14:36:29;;;;;;;27.75;14.73;;;6.90;99.90;;;;;;5019353;28;20045;-73
2021/12/25 14:38:58;;;;;;;32.08;14.82;;;6.90;99.90;;;;;;5008871;28;20064;-74
2021/12/25 14:41:36;;;;;;;33.20;17.08;;;6.90;99.90;;;;;;5020817;28;20056;-73
2021/12/25 14:44:25;;;;;;;27.02;14.50;;;6.90;99.90;;;;;;5014734;28;20042;-74